Time;durP1;ratioP1;P1;durP2;ratioP2;P2;SDS_P1;SDS_P2;PMS_P1;PMS_P2;Temp;Humidity;BMP_temperature;BMP_pressure;BME280_temperature;BME280_humidity;BME280_pressure;Samples;Min_cycle;Max_cycle;Signal;HPM_P1;HPM_P2
2022/11/29 00:01:00;;;;;;;14.50;6.07;;;;;;;;;;5071144;28;20550;-78
2022/11/29 00:03:31;;;;;;;16.13;5.17;;;;;;;;;;5072298;28;20745;-78
2022/11/29 00:06:04;;;;;;;12.93;4.73;;;;;;;;;;5071868;28;20238;-78
2022/11/29 00:08:31;;;;;;;16.53;5.60;;;;;;;;;;5076355;28;20318;-78
2022/11/29 00:11:03;;;;;;;15.93;5.97;;;;;;;;;;5076032;28;20286;-78
2022/11/29 00:13:30;;;;;;;17.87;5.60;;;;;;;;;;5075785;28;20238;-78
2022/11/29 00:16:01;;;;;;;16.33;5.63;;;;;;;;;;5076524;28;20242;-78
2022/11/29 00:18:31;;;;;;;16.53;5.57;;;;;;;;;;5074453;28;20309;-79
2022/11/29 00:21:01;;;;;;;13.70;5.33;;;;;;;;;;5036368;28;20208;-78
2022/11/29 00:23:28;;;;;;;16.07;5.57;;;;;;;;;;5036250;28;20240;-78
2022/11/29 00:25:55;;;;;;;17.37;7.10;;;;;;;;;;5036328;28;20283;-78
2022/11/29 00:28:24;;;;;;;20.17;8.10;;;;;;;;;;5057984;28;20265;-78
2022/11/29 00:30:51;;;;;;;18.87;8.50;;;;;;;;;;5069424;28;20629;-78
2022/11/29 00:33:18;;;;;;;18.07;8.13;;;;;;;;;;5068157;28;20282;-78
2022/11/29 00:35:46;;;;;;;21.93;8.03;;;;;;;;;;5056133;28;20200;-78
2022/11/29 00:38:13;;;;;;;19.70;7.90;;;;;;;;;;5056128;28;20782;-78
2022/11/29 00:40:40;;;;;;;22.33;7.97;;;;;;;;;;5073181;28;20879;-79
2022/11/29 00:43:08;;;;;;;18.53;8.10;;;;;;;;;;5066641;28;20631;-78
2022/11/29 00:45:36;;;;;;;17.27;7.97;;;;;;;;;;5060938;28;20290;-78
2022/11/29 00:48:04;;;;;;;19.90;8.17;;;;;;;;;;5074282;28;20278;-78
2022/11/29 00:50:31;;;;;;;14.53;6.13;;;;;;;;;;5074194;28;20235;-78
2022/11/29 00:52:58;;;;;;;13.47;5.40;;;;;;;;;;5071423;28;20318;-78
2022/11/29 00:55:25;;;;;;;14.13;5.30;;;;;;;;;;5072167;28;20242;-78
2022/11/29 00:57:53;;;;;;;11.03;5.13;;;;;;;;;;5073278;28;20297;-78
2022/11/29 01:00:20;;;;;;;13.30;4.80;;;;;;;;;;5065062;28;20330;-78
2022/11/29 01:02:49;;;;;;;8.97;4.77;;;;;;;;;;5058639;28;20249;-78
2022/11/29 01:05:16;;;;;;;10.30;5.17;;;;;;;;;;5075943;28;20238;-78
2022/11/29 01:07:44;;;;;;;15.03;7.27;;;;;;;;;;5055478;28;20310;-78
2022/11/29 01:10:11;;;;;;;18.93;7.83;;;;;;;;;;5055963;28;20250;-78
2022/11/29 01:12:38;;;;;;;20.80;8.90;;;;;;;;;;5054901;28;20231;-78
2022/11/29 01:15:07;;;;;;;25.63;9.47;;;;;;;;;;5058377;28;20666;-78
2022/11/29 01:17:35;;;;;;;25.10;9.37;;;;;;;;;;5074840;28;20240;-78
2022/11/29 01:20:17;;;;;;;26.10;9.30;;;;;;;;;;5073592;28;20212;-78
2022/11/29 01:22:44;;;;;;;21.07;8.83;;;;;;;;;;5056809;28;20199;-78
2022/11/29 01:25:12;;;;;;;23.13;8.80;;;;;;;;;;5055295;28;20278;-78
2022/11/29 01:27:40;;;;;;;19.10;8.37;;;;;;;;;;5061905;28;20238;-78
2022/11/29 01:30:09;;;;;;;22.87;9.03;;;;;;;;;;5065657;28;20253;-77
2022/11/29 01:32:36;;;;;;;26.10;9.27;;;;;;;;;;5068717;28;20226;-78
2022/11/29 01:35:08;;;;;;;22.90;8.77;;;;;;;;;;5055189;28;20702;-77
2022/11/29 01:37:35;;;;;;;23.57;10.37;;;;;;;;;;5054766;28;20224;-77
2022/11/29 01:40:03;;;;;;;24.07;9.90;;;;;;;;;;5060929;28;20237;-78
2022/11/29 01:42:30;;;;;;;25.80;10.30;;;;;;;;;;5065595;28;20235;-77
2022/11/29 01:45:01;;;;;;;24.77;11.23;;;;;;;;;;5070068;28;20282;-78
2022/11/29 01:47:29;;;;;;;22.23;11.17;;;;;;;;;;5064289;28;20210;-77
2022/11/29 01:49:56;;;;;;;24.00;10.83;;;;;;;;;;5054461;28;20203;-78
2022/11/29 01:52:26;;;;;;;23.17;9.57;;;;;;;;;;5057467;28;20205;-78
2022/11/29 01:54:56;;;;;;;21.50;8.77;;;;;;;;;;5053953;28;20208;-77
2022/11/29 01:57:24;;;;;;;19.73;8.90;;;;;;;;;;5063298;28;20344;-78
2022/11/29 01:59:53;;;;;;;24.13;8.07;;;;;;;;;;5073998;28;20309;-78
2022/11/29 02:02:22;;;;;;;19.93;7.60;;;;;;;;;;5069358;28;20283;-78
2022/11/29 02:04:50;;;;;;;22.07;8.30;;;;;;;;;;5054256;28;20805;-78
2022/11/29 02:07:18;;;;;;;15.40;7.60;;;;;;;;;;5059581;28;20746;-78
2022/11/29 02:09:46;;;;;;;16.10;7.07;;;;;;;;;;5074433;28;20210;-78
2022/11/29 02:12:22;;;;;;;20.93;8.10;;;;;;;;;;5074420;28;20291;-77
2022/11/29 02:14:56;;;;;;;14.10;6.50;;;;;;;;;;5074331;28;20285;-79
2022/11/29 02:17:30;;;;;;;16.97;7.67;;;;;;;;;;5074299;28;20286;-78
2022/11/29 02:20:06;;;;;;;14.00;7.03;;;;;;;;;;5072741;28;20309;-78
2022/11/29 02:22:35;;;;;;;14.00;7.20;;;;;;;;;;5073320;28;20730;-78
2022/11/29 02:25:18;;;;;;;17.87;7.57;;;;;;;;;;5059378;28;20261;-78
2022/11/29 02:28:07;;;;;;;16.47;7.93;;;;;;;;;;5053683;28;20283;-78
2022/11/29 02:31:04;;;;;;;16.73;7.53;;;;;;;;;;5063639;28;20242;-78
2022/11/29 02:33:50;;;;;;;19.37;7.80;;;;;;;;;;5020818;28;20320;-78
2022/11/29 02:36:27;;;;;;;16.90;7.10;;;;;;;;;;5011956;28;20236;-78
2022/11/29 02:39:18;;;;;;;18.73;7.00;;;;;;;;;;5021406;28;20751;-78
2022/11/29 02:41:51;;;;;;;16.57;7.73;;;;;;;;;;5021537;28;20611;-78
2022/11/29 02:44:27;;;;;;;17.97;7.43;;;;;;;;;;5031487;28;20289;-78
2022/11/29 02:47:00;;;;;;;19.77;7.70;;;;;;;;;;5031471;28;20232;-78
2022/11/29 02:49:36;;;;;;;16.10;7.83;;;;;;;;;;5029603;28;20731;-78
2022/11/29 02:52:05;;;;;;;15.80;7.73;;;;;;;;;;5030445;28;20230;-78
2022/11/29 02:54:40;;;;;;;14.67;8.27;;;;;;;;;;5014213;28;20296;-78
2022/11/29 02:57:12;;;;;;;18.20;9.03;;;;;;;;;;5011571;28;20228;-78
2022/11/29 02:59:46;;;;;;;18.13;9.13;;;;;;;;;;5011414;28;20221;-78
2022/11/29 03:02:18;;;;;;;21.57;8.90;;;;;;;;;;4997406;28;20221;-78
2022/11/29 03:04:50;;;;;;;20.27;8.83;;;;;;;;;;5022043;28;20200;-78
2022/11/29 03:07:24;;;;;;;26.30;9.13;;;;;;;;;;5044487;28;20235;-78
2022/11/29 03:09:56;;;;;;;25.30;8.70;;;;;;;;;;5069666;28;20197;-78
2022/11/29 03:12:26;;;;;;;20.90;8.87;;;;;;;;;;5067770;28;20226;-78
2022/11/29 03:15:03;;;;;;;19.70;8.67;;;;;;;;;;5073105;28;20294;-78
2022/11/29 03:17:32;;;;;;;20.90;8.17;;;;;;;;;;5064118;28;20195;-78
2022/11/29 03:20:14;;;;;;;23.27;7.87;;;;;;;;;;5064505;28;20250;-78
2022/11/29 03:22:47;;;;;;;18.03;8.60;;;;;;;;;;5073415;28;20286;-78
2022/11/29 03:25:19;;;;;;;20.37;8.10;;;;;;;;;;5072753;28;20738;-78
2022/11/29 03:27:49;;;;;;;17.30;7.90;;;;;;;;;;5056257;28;20200;-78
2022/11/29 03:30:18;;;;;;;21.70;8.23;;;;;;;;;;5055081;28;20302;-78
2022/11/29 03:32:48;;;;;;;20.23;7.70;;;;;;;;;;5052440;28;20723;-78
2022/11/29 03:35:19;;;;;;;18.67;8.43;;;;;;;;;;5052905;28;20231;-78
2022/11/29 03:37:51;;;;;;;18.40;7.90;;;;;;;;;;5063519;28;20282;-78
2022/11/29 03:40:20;;;;;;;21.10;8.20;;;;;;;;;;5067046;28;20247;-78
2022/11/29 03:42:51;;;;;;;19.80;9.10;;;;;;;;;;5069926;28;20797;-78
2022/11/29 03:45:22;;;;;;;19.00;8.00;;;;;;;;;;5071174;28;20226;-78
2022/11/29 03:47:51;;;;;;;20.30;7.73;;;;;;;;;;5073047;28;20231;-78
2022/11/29 03:50:21;;;;;;;23.00;7.80;;;;;;;;;;5072139;28;20241;-78
2022/11/29 03:52:51;;;;;;;19.17;8.23;;;;;;;;;;5070799;28;20237;-78
2022/11/29 03:55:31;;;;;;;19.87;8.03;;;;;;;;;;5052639;28;20248;-78
2022/11/29 03:58:06;;;;;;;17.50;8.13;;;;;;;;;;5053729;28;20199;-79
2022/11/29 04:00:36;;;;;;;22.17;8.17;;;;;;;;;;5072398;28;20290;-78
2022/11/29 04:03:22;;;;;;;20.43;7.97;;;;;;;;;;5070638;28;20682;-78
2022/11/29 04:06:04;;;;;;;25.03;8.43;;;;;;;;;;5072308;28;20234;-78
2022/11/29 04:08:49;;;;;;;16.97;7.50;;;;;;;;;;5069586;28;20227;-78
2022/11/29 04:11:53;;;;;;;21.43;7.63;;;;;;;;;;5071870;28;20297;-78
2022/11/29 04:14:35;;;;;;;22.53;7.93;;;;;;;;;;5072068;28;20293;-77
2022/11/29 04:17:27;;;;;;;22.80;7.80;;;;;;;;;;5070379;28;20675;-77
2022/11/29 04:20:08;;;;;;;17.63;7.83;;;;;;;;;;5072460;28;20261;-77
2022/11/29 04:22:50;;;;;;;18.27;7.07;;;;;;;;;;5072184;28;20202;-77
2022/11/29 04:25:32;;;;;;;13.63;7.33;;;;;;;;;;5071371;28;20255;-77
2022/11/29 04:28:07;;;;;;;17.13;7.23;;;;;;;;;;5047309;28;20242;-77
2022/11/29 04:30:43;;;;;;;16.97;7.53;;;;;;;;;;5051896;28;20250;-77
2022/11/29 04:33:25;;;;;;;16.87;7.13;;;;;;;;;;5061934;28;20206;-77
2022/11/29 04:35:57;;;;;;;19.37;7.10;;;;;;;;;;5058503;28;20271;-76
2022/11/29 04:38:29;;;;;;;18.17;6.83;;;;;;;;;;5072316;28;20285;-77
2022/11/29 04:41:05;;;;;;;17.70;7.10;;;;;;;;;;5055720;28;20294;-78
2022/11/29 04:43:42;;;;;;;21.20;7.43;;;;;;;;;;5052067;28;20241;-78
2022/11/29 04:46:23;;;;;;;15.67;6.83;;;;;;;;;;5052290;28;20199;-78
2022/11/29 04:48:56;;;;;;;18.13;7.30;;;;;;;;;;5051622;28;20253;-78
2022/11/29 04:51:29;;;;;;;18.30;7.43;;;;;;;;;;5064388;28;20241;-79
2022/11/29 04:53:59;;;;;;;24.67;8.30;;;;;;;;;;5074188;28;20293;-78
2022/11/29 04:56:31;;;;;;;22.37;8.67;;;;;;;;;;5075255;28;20237;-78
2022/11/29 04:59:03;;;;;;;28.70;11.27;;;;;;;;;;5058340;28;20254;-78
2022/11/29 05:01:35;;;;;;;39.47;14.33;;;;;;;;;;5055388;28;20625;-77
2022/11/29 05:04:05;;;;;;;38.00;15.43;;;;;;;;;;5055034;28;20608;-78
2022/11/29 05:06:36;;;;;;;44.77;15.70;;;;;;;;;;5054891;28;20287;-79
2022/11/29 05:09:07;;;;;;;42.90;14.23;;;;;;;;;;5054889;28;20286;-78
2022/11/29 05:11:53;;;;;;;32.33;10.80;;;;;;;;;;5058077;28;20275;-79
2022/11/29 05:14:27;;;;;;;30.07;9.90;;;;;;;;;;5054781;28;20235;-79
2022/11/29 05:17:01;;;;;;;18.87;7.67;;;;;;;;;;5055407;28;20241;-78
2022/11/29 05:19:41;;;;;;;22.87;7.27;;;;;;;;;;5054747;28;20266;-78
2022/11/29 05:22:20;;;;;;;14.63;6.40;;;;;;;;;;5068813;28;20240;-78
2022/11/29 05:24:53;;;;;;;19.80;7.43;;;;;;;;;;5060514;28;20227;-78
2022/11/29 05:27:24;;;;;;;12.57;6.23;;;;;;;;;;5054541;28;20245;-77
2022/11/29 05:29:55;;;;;;;18.27;6.00;;;;;;;;;;5066392;28;20251;-76
2022/11/29 05:32:27;;;;;;;15.60;6.70;;;;;;;;;;5060534;28;20207;-78
2022/11/29 05:35:03;;;;;;;12.93;6.20;;;;;;;;;;5064298;28;20203;-79
2022/11/29 05:37:36;;;;;;;19.67;7.13;;;;;;;;;;5064863;28;20253;-78
2022/11/29 05:40:12;;;;;;;18.87;6.43;;;;;;;;;;5072931;28;20247;-78
2022/11/29 05:42:47;;;;;;;20.47;6.80;;;;;;;;;;5071396;28;20209;-76
2022/11/29 05:45:18;;;;;;;19.00;6.97;;;;;;;;;;5065082;28;20241;-78
2022/11/29 05:47:52;;;;;;;20.07;7.63;;;;;;;;;;5054051;28;20291;-78
2022/11/29 05:50:23;;;;;;;17.63;6.63;;;;;;;;;;5054531;28;20291;-76
2022/11/29 05:52:55;;;;;;;18.97;7.00;;;;;;;;;;5058909;28;20237;-78
2022/11/29 05:55:29;;;;;;;14.63;7.13;;;;;;;;;;5074801;28;20299;-78
2022/11/29 05:57:59;;;;;;;17.47;7.97;;;;;;;;;;5074422;28;20237;-78
2022/11/29 06:00:28;;;;;;;19.07;8.90;;;;;;;;;;5066752;28;20266;-78
2022/11/29 06:02:59;;;;;;;18.33;8.63;;;;;;;;;;5064240;28;20230;-80
2022/11/29 06:05:31;;;;;;;16.90;9.13;;;;;;;;;;5062970;28;20690;-83
2022/11/29 06:08:03;;;;;;;19.10;9.40;;;;;;;;;;5060947;28;20231;-78
2022/11/29 06:10:32;;;;;;;18.00;9.67;;;;;;;;;;5053381;28;20241;-79
2022/11/29 06:13:03;;;;;;;22.80;10.90;;;;;;;;;;5066382;28;20284;-78
2022/11/29 06:15:52;;;;;;;20.03;11.33;;;;;;;;;;5065811;28;20232;-80
2022/11/29 06:18:36;;;;;;;30.80;11.83;;;;;;;;;;5052653;28;20230;-80
2022/11/29 06:21:06;;;;;;;23.03;11.27;;;;;;;;;;5054947;28;20223;-83
2022/11/29 06:23:47;;;;;;;19.83;8.93;;;;;;;;;;5071364;28;20202;-83
2022/11/29 06:26:24;;;;;;;16.90;8.10;;;;;;;;;;5063504;28;20210;-82
2022/11/29 06:28:57;;;;;;;16.37;8.40;;;;;;;;;;5061721;28;20221;-80
2022/11/29 06:31:26;;;;;;;29.93;10.37;;;;;;;;;;5060408;28;20206;-82
2022/11/29 06:33:59;;;;;;;26.63;8.57;;;;;;;;;;5058078;28;20198;-80
2022/11/29 06:36:31;;;;;;;21.17;9.20;;;;;;;;;;5061410;28;20202;-82
2022/11/29 06:38:58;;;;;;;26.07;9.70;;;;;;;;;;5066252;28;20288;-82
2022/11/29 06:41:25;;;;;;;25.53;9.83;;;;;;;;;;5068433;28;20292;-80
2022/11/29 06:44:01;;;;;;;27.03;8.43;;;;;;;;;;5061782;28;20664;-81
2022/11/29 06:46:35;;;;;;;31.13;9.20;;;;;;;;;;5054244;28;20693;-78
2022/11/29 06:49:09;;;;;;;23.33;9.17;;;;;;;;;;5056912;28;20204;-78
2022/11/29 06:51:40;;;;;;;35.80;22.00;;;;;;;;;;5049084;28;20270;-78
2022/11/29 06:54:14;;;;;;;30.23;19.97;;;;;;;;;;5050144;28;20231;-78
2022/11/29 06:56:44;;;;;;;26.50;18.37;;;;;;;;;;5057416;28;20244;-80
2022/11/29 06:59:16;;;;;;;35.20;17.83;;;;;;;;;;5052801;28;20296;-80
2022/11/29 07:01:46;;;;;;;25.23;12.50;;;;;;;;;;5062887;28;20299;-80
2022/11/29 07:04:31;;;;;;;22.57;11.83;;;;;;;;;;5066692;28;20213;-80
2022/11/29 07:07:01;;;;;;;19.30;10.63;;;;;;;;;;5071371;28;20269;-80
2022/11/29 07:09:31;;;;;;;20.17;10.93;;;;;;;;;;5073138;28;20236;-80
2022/11/29 07:11:58;;;;;;;32.47;10.63;;;;;;;;;;5061877;28;20258;-80
2022/11/29 07:14:26;;;;;;;24.23;13.00;;;;;;;;;;5039014;28;20263;-80
2022/11/29 07:17:00;;;;;;;47.53;11.20;;;;;;;;;;5054355;28;20222;-80
2022/11/29 07:19:33;;;;;;;38.43;9.93;;;;;;;;;;5063581;28;20248;-80
2022/11/29 07:22:05;;;;;;;48.83;22.80;;;;;;;;;;5056801;28;20232;-80
2022/11/29 07:24:39;;;;;;;41.37;13.77;;;;;;;;;;5071387;28;20615;-80
2022/11/29 07:27:09;;;;;;;26.03;12.60;;;;;;;;;;5064664;28;20234;-80
2022/11/29 07:29:42;;;;;;;22.70;13.27;;;;;;;;;;5070067;28;20254;-80
2022/11/29 07:32:13;;;;;;;24.37;15.87;;;;;;;;;;5068375;28;20200;-80
2022/11/29 07:34:46;;;;;;;24.57;14.53;;;;;;;;;;5072365;28;20244;-80
2022/11/29 07:37:20;;;;;;;22.47;12.77;;;;;;;;;;5056569;28;20260;-83
2022/11/29 07:39:51;;;;;;;29.27;14.00;;;;;;;;;;5063619;28;20259;-81
2022/11/29 07:42:23;;;;;;;26.40;12.63;;;;;;;;;;5056882;28;20211;-81
2022/11/29 07:44:56;;;;;;;19.47;10.13;;;;;;;;;;5052360;28;20294;-81
2022/11/29 07:47:25;;;;;;;19.67;12.30;;;;;;;;;;5062398;28;20231;-81
2022/11/29 07:49:52;;;;;;;23.37;12.80;;;;;;;;;;5067418;28;20221;-81
2022/11/29 07:52:21;;;;;;;13.13;9.87;;;;;;;;;;5052713;28;20239;-81
2022/11/29 07:54:48;;;;;;;15.37;9.80;;;;;;;;;;5052685;28;20230;-81
2022/11/29 07:57:15;;;;;;;13.67;10.70;;;;;;;;;;5068977;28;20231;-81
2022/11/29 07:59:42;;;;;;;19.10;11.97;;;;;;;;;;5070749;28;20301;-81
2022/11/29 08:02:11;;;;;;;16.90;12.10;;;;;;;;;;5072314;28;20287;-81
2022/11/29 08:04:41;;;;;;;18.97;13.27;;;;;;;;;;5072575;28;20230;-81
2022/11/29 08:07:09;;;;;;;19.93;13.70;;;;;;;;;;5071915;28;20274;-81
2022/11/29 08:09:37;;;;;;;28.07;14.70;;;;;;;;;;5072168;28;20228;-81
2022/11/29 08:12:05;;;;;;;43.50;14.93;;;;;;;;;;5063222;28;20706;-81
2022/11/29 08:14:32;;;;;;;35.77;14.37;;;;;;;;;;5059537;28;20208;-81
2022/11/29 08:16:59;;;;;;;32.83;13.80;;;;;;;;;;5060948;28;20212;-81
2022/11/29 08:19:27;;;;;;;29.83;13.37;;;;;;;;;;5054310;28;20238;-81
2022/11/29 08:21:54;;;;;;;24.90;12.00;;;;;;;;;;5063444;28;20295;-81
2022/11/29 08:24:21;;;;;;;19.20;10.67;;;;;;;;;;5052410;28;20591;-81
2022/11/29 08:26:50;;;;;;;21.40;10.17;;;;;;;;;;5064151;28;20240;-80
2022/11/29 08:29:17;;;;;;;24.97;11.10;;;;;;;;;;5075727;28;20328;-81
2022/11/29 08:31:45;;;;;;;41.10;15.97;;;;;;;;;;5076465;28;20238;-82
2022/11/29 08:34:12;;;;;;;39.67;16.77;;;;;;;;;;5076069;28;20281;-81
2022/11/29 08:36:39;;;;;;;40.40;17.10;;;;;;;;;;5075829;28;20689;-82
2022/11/29 08:39:07;;;;;;;31.07;14.83;;;;;;;;;;5075349;28;20713;-81
2022/11/29 08:41:34;;;;;;;40.50;16.47;;;;;;;;;;5075795;28;20689;-81
2022/11/29 08:44:02;;;;;;;32.23;15.07;;;;;;;;;;5074625;28;20192;-81
2022/11/29 08:49:12;;;;;;;25.70;11.93;;;;;;;;;;5055041;28;20257;-81
2022/11/29 08:51:39;;;;;;;49.77;12.87;;;;;;;;;;5057295;28;20231;-81
2022/11/29 08:54:06;;;;;;;23.50;11.83;;;;;;;;;;5072715;28;20253;-81
2022/11/29 08:56:33;;;;;;;30.93;15.27;;;;;;;;;;5075377;28;20286;-81
2022/11/29 08:59:00;;;;;;;25.30;14.60;;;;;;;;;;5075812;28;20645;-81
2022/11/29 09:01:29;;;;;;;29.43;15.07;;;;;;;;;;5074507;28;20250;-81
2022/11/29 09:03:59;;;;;;;29.93;15.37;;;;;;;;;;5055785;28;20204;-81
2022/11/29 09:06:27;;;;;;;25.87;15.00;;;;;;;;;;5054892;28;20202;-81
2022/11/29 09:08:55;;;;;;;21.37;13.00;;;;;;;;;;5055310;28;20238;-81
2022/11/29 09:11:23;;;;;;;19.80;12.63;;;;;;;;;;5054883;28;20207;-81
2022/11/29 09:13:51;;;;;;;17.97;12.83;;;;;;;;;;5055469;28;20675;-81
2022/11/29 09:16:19;;;;;;;21.17;14.07;;;;;;;;;;5055314;28;20291;-81
2022/11/29 09:18:49;;;;;;;21.37;13.33;;;;;;;;;;5071551;28;20228;-81
2022/11/29 09:21:17;;;;;;;25.83;13.60;;;;;;;;;;5066463;28;20226;-81
2022/11/29 09:23:45;;;;;;;18.07;11.80;;;;;;;;;;5074907;28;20238;-81
2022/11/29 09:26:17;;;;;;;18.70;12.23;;;;;;;;;;5074030;28;20286;-81
2022/11/29 09:28:44;;;;;;;19.10;10.63;;;;;;;;;;5074473;28;20311;-81
2022/11/29 09:31:13;;;;;;;14.13;10.77;;;;;;;;;;5074911;28;20282;-81
2022/11/29 09:33:41;;;;;;;18.40;10.57;;;;;;;;;;5074164;28;20203;-81
2022/11/29 09:36:11;;;;;;;37.83;10.33;;;;;;;;;;5074473;28;20195;-81
2022/11/29 09:38:39;;;;;;;62.17;10.13;;;;;;;;;;5074551;28;20199;-81
2022/11/29 09:41:15;;;;;;;56.43;10.50;;;;;;;;;;5074407;28;20231;-81
2022/11/29 09:43:45;;;;;;;53.27;10.47;;;;;;;;;;5074744;28;20293;-82
2022/11/29 09:46:17;;;;;;;16.33;9.40;;;;;;;;;;5074817;28;20286;-81
2022/11/29 09:48:55;;;;;;;12.83;8.73;;;;;;;;;;5074548;28;20195;-82
2022/11/29 09:51:27;;;;;;;12.67;8.73;;;;;;;;;;5074182;28;20203;-81
2022/11/29 09:54:05;;;;;;;36.27;8.80;;;;;;;;;;5073792;28;20656;-82
2022/11/29 09:56:42;;;;;;;11.40;8.53;;;;;;;;;;5074418;28;20224;-81
2022/11/29 09:59:12;;;;;;;11.33;8.53;;;;;;;;;;5065888;28;20682;-81
2022/11/29 10:01:41;;;;;;;31.00;9.10;;;;;;;;;;5063243;28;20258;-81
2022/11/29 10:04:11;;;;;;;11.00;8.63;;;;;;;;;;5054502;28;20200;-81
2022/11/29 10:06:42;;;;;;;20.93;10.20;;;;;;;;;;5072598;28;20314;-81
2022/11/29 10:09:14;;;;;;;47.20;11.40;;;;;;;;;;5073475;28;20569;-81
2022/11/29 10:11:44;;;;;;;98.43;13.77;;;;;;;;;;5074162;28;20245;-82
2022/11/29 10:14:15;;;;;;;1724.37;96.50;;;;;;;;;;5074177;28;20202;-82
2022/11/29 10:16:45;;;;;;;24.57;14.23;;;;;;;;;;5073928;28;20205;-82
2022/11/29 10:19:15;;;;;;;163.50;19.37;;;;;;;;;;5074299;28;20223;-82
2022/11/29 10:21:45;;;;;;;27.63;13.93;;;;;;;;;;5073992;28;20288;-82
2022/11/29 10:24:16;;;;;;;117.07;15.60;;;;;;;;;;5073584;28;20651;-82
2022/11/29 10:26:43;;;;;;;23.70;13.50;;;;;;;;;;5070531;28;20213;-82
2022/11/29 10:29:11;;;;;;;19.47;12.10;;;;;;;;;;5059985;28;20251;-82
2022/11/29 10:31:42;;;;;;;528.63;41.37;;;;;;;;;;5073825;28;20283;-82
2022/11/29 10:34:13;;;;;;;140.97;17.40;;;;;;;;;;5073951;28;20344;-82
2022/11/29 10:36:49;;;;;;;14.70;9.83;;;;;;;;;;5073385;28;20234;-83
2022/11/29 10:39:20;;;;;;;13.00;7.50;;;;;;;;;;5073284;28;20234;-82
2022/11/29 10:41:48;;;;;;;8.73;5.10;;;;;;;;;;5073274;28;20799;-82
2022/11/29 10:44:16;;;;;;;7.77;4.57;;;;;;;;;;5067668;28;20648;-83
2022/11/29 10:46:48;;;;;;;9.20;4.50;;;;;;;;;;5054052;28;20203;-83
2022/11/29 10:49:16;;;;;;;10.27;4.37;;;;;;;;;;5063623;28;20204;-83
2022/11/29 10:51:43;;;;;;;9.47;4.10;;;;;;;;;;5052678;28;20615;-83
2022/11/29 10:54:19;;;;;;;8.43;4.60;;;;;;;;;;5056601;28;20280;-83
2022/11/29 10:56:46;;;;;;;10.63;4.70;;;;;;;;;;5072363;28;20233;-83
2022/11/29 10:59:20;;;;;;;6.80;3.72;;;;;;;;;;5073564;28;20219;-83
2022/11/29 11:01:47;;;;;;;7.25;4.00;;;;;;;;;;5072373;28;20326;-83
2022/11/29 11:04:16;;;;;;;6.03;4.15;;;;;;;;;;5063639;28;20234;-83
2022/11/29 11:06:45;;;;;;;8.50;4.05;;;;;;;;;;5061116;28;20668;-83
2022/11/29 11:09:15;;;;;;;7.63;3.65;;;;;;;;;;5053301;28;20358;-82
2022/11/29 11:11:50;;;;;;;6.55;3.83;;;;;;;;;;5092535;28;20195;-83
2022/11/29 11:14:20;;;;;;;6.53;4.00;;;;;;;;;;5064234;28;20231;-83
2022/11/29 11:16:47;;;;;;;8.38;4.05;;;;;;;;;;5071024;28;20669;-83
2022/11/29 11:19:26;;;;;;;7.32;3.97;;;;;;;;;;5070856;28;20235;-83
2022/11/29 11:21:53;;;;;;;8.98;4.00;;;;;;;;;;5052763;28;20223;-83
2022/11/29 11:24:23;;;;;;;6.32;3.60;;;;;;;;;;5052547;28;20235;-83
2022/11/29 11:26:52;;;;;;;7.28;3.72;;;;;;;;;;5063447;28;20201;-83
2022/11/29 11:29:20;;;;;;;8.63;4.13;;;;;;;;;;5070769;28;20218;-83
2022/11/29 11:31:53;;;;;;;7.68;4.25;;;;;;;;;;5072591;28;20260;-83
2022/11/29 11:34:26;;;;;;;5.97;3.55;;;;;;;;;;5061119;28;20703;-83
2022/11/29 11:36:53;;;;;;;5.45;3.47;;;;;;;;;;5052868;28;20200;-83
2022/11/29 11:39:21;;;;;;;8.73;3.33;;;;;;;;;;5052361;28;20675;-83
2022/11/29 11:44:38;;;;;;;7.70;3.15;;;;;;;;;;5052725;28;20253;-83
2022/11/29 11:47:06;;;;;;;6.03;2.78;;;;;;;;;;5067170;28;20253;-83
2022/11/29 11:49:38;;;;;;;5.57;2.90;;;;;;;;;;5066839;28;20227;-83
2022/11/29 11:52:07;;;;;;;6.85;3.15;;;;;;;;;;5060686;28;20194;-83
2022/11/29 11:54:34;;;;;;;6.20;3.00;;;;;;;;;;5059863;28;20293;-83
2022/11/29 11:57:01;;;;;;;7.30;3.10;;;;;;;;;;5068495;28;20233;-83
2022/11/29 11:59:28;;;;;;;4.78;2.97;;;;;;;;;;5055392;28;20223;-83
2022/11/29 12:01:57;;;;;;;7.68;3.33;;;;;;;;;;5072443;28;20761;-83
2022/11/29 12:04:26;;;;;;;5.65;2.58;;;;;;;;;;5076154;28;20633;-83
2022/11/29 12:06:55;;;;;;;4.97;2.60;;;;;;;;;;5075352;28;20262;-83
2022/11/29 12:09:33;;;;;;;10.07;3.63;;;;;;;;;;5076422;28;20199;-83
2022/11/29 12:12:03;;;;;;;8.82;2.83;;;;;;;;;;5076617;28;20241;-83
2022/11/29 12:14:35;;;;;;;3.92;2.22;;;;;;;;;;5075661;28;20227;-83
2022/11/29 12:17:06;;;;;;;6.43;2.97;;;;;;;;;;5076050;28;20762;-84
2022/11/29 12:19:37;;;;;;;5.80;3.00;;;;;;;;;;5072225;28;20581;-83
2022/11/29 12:22:08;;;;;;;6.97;3.38;;;;;;;;;;5075881;28;20262;-83
2022/11/29 12:24:38;;;;;;;7.70;2.90;;;;;;;;;;5076405;28;20203;-84
2022/11/29 12:27:06;;;;;;;4.55;2.63;;;;;;;;;;5076380;28;20237;-83
2022/11/29 12:29:34;;;;;;;8.15;3.03;;;;;;;;;;5074662;28;20276;-83
2022/11/29 12:32:09;;;;;;;5.03;2.90;;;;;;;;;;5076398;28;20230;-83
2022/11/29 12:34:51;;;;;;;5.15;2.45;;;;;;;;;;5071449;28;20198;-83
2022/11/29 12:37:21;;;;;;;2.25;1.75;;;;;;;;;;5075823;28;20679;-83
2022/11/29 12:39:57;;;;;;;4.50;1.67;;;;;;;;;;5075736;28;20294;-83
2022/11/29 12:42:31;;;;;;;5.03;1.80;;;;;;;;;;5075999;28;20659;-83
2022/11/29 12:45:04;;;;;;;6.00;2.28;;;;;;;;;;5075667;28;20290;-83
2022/11/29 12:47:38;;;;;;;2.95;1.52;;;;;;;;;;5075214;28;20234;-83
2022/11/29 12:50:14;;;;;;;3.72;1.48;;;;;;;;;;5076260;28;20198;-84
2022/11/29 12:52:45;;;;;;;6.22;1.50;;;;;;;;;;5075609;28;20233;-83
2022/11/29 12:55:18;;;;;;;2.92;1.42;;;;;;;;;;5075520;28;20238;-83
2022/11/29 12:57:50;;;;;;;4.03;2.00;;;;;;;;;;5074965;28;20235;-83
2022/11/29 13:00:19;;;;;;;4.15;1.80;;;;;;;;;;5075594;28;20249;-83
2022/11/29 13:02:53;;;;;;;4.85;1.80;;;;;;;;;;5072298;28;20249;-83
2022/11/29 13:05:24;;;;;;;2.55;1.45;;;;;;;;;;5055620;28;20253;-83
2022/11/29 13:08:00;;;;;;;3.08;1.70;;;;;;;;;;5055183;28;20242;-83
2022/11/29 13:10:44;;;;;;;5.10;1.92;;;;;;;;;;5055531;28;20250;-83
2022/11/29 13:13:18;;;;;;;4.18;1.77;;;;;;;;;;5055039;28;20283;-83
2022/11/29 13:15:51;;;;;;;5.55;1.80;;;;;;;;;;5055039;28;20290;-83
2022/11/29 13:18:23;;;;;;;3.17;1.73;;;;;;;;;;5070499;28;20195;-83
2022/11/29 13:20:53;;;;;;;4.28;1.63;;;;;;;;;;5075309;28;20286;-83
2022/11/29 13:23:24;;;;;;;5.32;1.98;;;;;;;;;;5075122;28;20234;-83
2022/11/29 13:25:53;;;;;;;4.30;1.85;;;;;;;;;;5069711;28;20227;-83
2022/11/29 13:28:23;;;;;;;4.40;1.98;;;;;;;;;;5055017;28;20200;-83
2022/11/29 13:30:51;;;;;;;3.25;1.58;;;;;;;;;;5055012;28;20203;-82
2022/11/29 13:33:23;;;;;;;6.93;1.63;;;;;;;;;;5062428;28;20257;-83
2022/11/29 13:35:54;;;;;;;5.30;1.80;;;;;;;;;;5074507;28;20237;-82
2022/11/29 13:38:25;;;;;;;3.87;1.97;;;;;;;;;;5073553;28;20227;-83
2022/11/29 13:40:54;;;;;;;6.07;2.30;;;;;;;;;;5064506;28;20224;-83
2022/11/29 13:43:24;;;;;;;5.47;2.50;;;;;;;;;;5054887;28;20274;-83
2022/11/29 13:45:57;;;;;;;3.90;2.10;;;;;;;;;;5064844;28;20722;-83
2022/11/29 13:48:36;;;;;;;4.80;2.37;;;;;;;;;;5069415;28;20196;-83
2022/11/29 13:51:23;;;;;;;10.10;2.87;;;;;;;;;;5054471;28;20286;-83
2022/11/29 13:53:51;;;;;;;10.67;3.23;;;;;;;;;;5054549;28;20230;-83
2022/11/29 13:56:26;;;;;;;27.33;5.13;;;;;;;;;;5072488;28;20199;-82
2022/11/29 13:58:54;;;;;;;24.07;4.30;;;;;;;;;;5074364;28;20752;-83
2022/11/29 14:01:25;;;;;;;15.90;4.10;;;;;;;;;;5074125;28;20246;-82
2022/11/29 14:04:03;;;;;;;22.93;4.43;;;;;;;;;;5074520;28;20201;-83
2022/11/29 14:06:33;;;;;;;13.47;4.17;;;;;;;;;;5060590;28;20291;-83
2022/11/29 14:09:22;;;;;;;12.23;3.77;;;;;;;;;;5054200;28;20253;-83
2022/11/29 14:11:51;;;;;;;9.37;3.30;;;;;;;;;;5086186;28;20202;-82
2022/11/29 14:14:21;;;;;;;9.17;2.70;;;;;;;;;;5054289;28;20603;-83
2022/11/29 14:16:50;;;;;;;7.27;3.13;;;;;;;;;;5054140;28;20231;-83
2022/11/29 14:19:24;;;;;;;8.93;2.90;;;;;;;;;;5053924;28;20239;-83
2022/11/29 14:22:19;;;;;;;7.40;3.43;;;;;;;;;;5067030;28;20820;-83
2022/11/29 14:25:16;;;;;;;8.63;3.27;;;;;;;;;;4992170;28;20235;-83
2022/11/29 14:27:47;;;;;;;5.70;2.70;;;;;;;;;;4998540;28;20243;-83
2022/11/29 14:30:40;;;;;;;10.03;3.50;;;;;;;;;;5011821;28;20229;-83
2022/11/29 14:33:15;;;;;;;8.73;3.20;;;;;;;;;;5011862;28;20740;-83
2022/11/29 14:35:47;;;;;;;5.37;2.87;;;;;;;;;;5007004;28;20201;-84
2022/11/29 14:38:19;;;;;;;7.13;2.93;;;;;;;;;;4972820;28;20289;-83
2022/11/29 14:40:50;;;;;;;6.87;2.83;;;;;;;;;;4972756;28;20750;-83
2022/11/29 14:43:21;;;;;;;8.23;3.07;;;;;;;;;;4972497;28;20678;-83
2022/11/29 14:45:48;;;;;;;14.33;4.03;;;;;;;;;;4972711;28;20269;-83
2022/11/29 14:48:26;;;;;;;11.80;4.10;;;;;;;;;;4972527;28;20206;-83
2022/11/29 14:51:07;;;;;;;8.00;3.83;;;;;;;;;;4978639;28;20239;-83
2022/11/29 14:53:36;;;;;;;10.77;4.10;;;;;;;;;;4997082;28;20576;-83
2022/11/29 14:56:18;;;;;;;6.43;3.33;;;;;;;;;;4991920;28;20624;-83
2022/11/29 14:58:45;;;;;;;6.10;3.27;;;;;;;;;;4990905;28;20268;-84
2022/11/29 15:01:13;;;;;;;10.73;7.17;;;;;;;;;;5038386;28;20227;-83